EBLB

Elsenborn Airport

Bütgenbach, Belgium
METAR EBLB 190336Z AUTO 28011KT 1500 -SN OVC006/// M00/M01 Q1004 AMB
Observed Flight Rules
Jan-19 @ 03:36 UTC (14 minutes ago) Instrument Flight Rules
Wind Visibility Clouds Conditions
280° at 11 knots 1,497 meters
  • Overcast at 600' AGL
  • Light Snow
Temperatures Readings
Current 0°C / 32°F
Dewpoint -1°C / 30°F
Humidity 93%
Altimeter 29.65" Hg
Pressure 1004 hPa
Elevation 570
METAR EBLB 190336Z AUTO 28011KT 1500 -SN OVC006/// M00/M01 Q1004 AMB
Observed Flight Rules
Jan-19 @ 03:36 UTC
(14 minutes ago)
LIFR
Wind Visibility
280° at 11 knots 1,497 meters
Clouds
  • Overcast at 600' AGL
Conditions
  • Light Snow
Temperature Dewpoint
0°C / 32°F -1°C / 30°F
Humidity Altimeter Pressure
93% 29.65" Hg 1004 hPa